sensor_id;sensor_type;location;lat;lon;timestamp;pressure;altitude;pressure_sealevel;temperature;humidity
6395;BME280;3230;42.588;23.358;2023-05-23T00:01:35;90934.56;;;9.43;100.00
6395;BME280;3230;42.588;23.358;2023-05-23T00:04:04;90937.41;;;9.52;100.00
6395;BME280;3230;42.588;23.358;2023-05-23T00:06:30;90941.84;;;9.51;100.00
6395;BME280;3230;42.588;23.358;2023-05-23T00:08:55;90936.38;;;9.48;100.00
6395;BME280;3230;42.588;23.358;2023-05-23T00:11:21;90941.13;;;9.40;100.00
6395;BME280;3230;42.588;23.358;2023-05-23T00:13:54;90933.03;;;9.37;100.00
6395;BME280;3230;42.588;23.358;2023-05-23T00:16:20;90935.38;;;9.33;100.00
6395;BME280;3230;42.588;23.358;2023-05-23T00:18:47;90936.97;;;9.29;100.00
6395;BME280;3230;42.588;23.358;2023-05-23T00:21:14;90933.84;;;9.27;100.00
6395;BME280;3230;42.588;23.358;2023-05-23T00:23:40;90930.41;;;9.37;100.00
6395;BME280;3230;42.588;23.358;2023-05-23T00:26:07;90922.59;;;9.32;100.00
6395;BME280;3230;42.588;23.358;2023-05-23T00:28:32;90926.00;;;9.27;100.00
6395;BME280;3230;42.588;23.358;2023-05-23T00:30:58;90926.22;;;9.36;100.00
6395;BME280;3230;42.588;23.358;2023-05-23T00:33:23;90918.94;;;9.27;100.00
6395;BME280;3230;42.588;23.358;2023-05-23T00:35:49;90920.53;;;9.23;100.00
6395;BME280;3230;42.588;23.358;2023-05-23T00:38:15;90922.09;;;9.24;100.00
6395;BME280;3230;42.588;23.358;2023-05-23T00:40:41;90912.16;;;9.21;100.00
6395;BME280;3230;42.588;23.358;2023-05-23T00:43:06;90908.75;;;9.26;100.00
6395;BME280;3230;42.588;23.358;2023-05-23T00:45:34;90906.94;;;9.21;100.00
6395;BME280;3230;42.588;23.358;2023-05-23T00:48:01;90909.53;;;9.21;100.00
6395;BME280;3230;42.588;23.358;2023-05-23T00:50:27;90909.25;;;9.33;100.00
6395;BME280;3230;42.588;23.358;2023-05-23T00:52:54;90904.50;;;9.35;100.00
6395;BME280;3230;42.588;23.358;2023-05-23T00:55:20;90913.41;;;9.39;100.00
6395;BME280;3230;42.588;23.358;2023-05-23T00:57:46;90914.44;;;9.38;100.00
6395;BME280;3230;42.588;23.358;2023-05-23T01:00:13;90913.09;;;9.46;100.00
6395;BME280;3230;42.588;23.358;2023-05-23T01:02:42;90919.03;;;9.67;100.00
6395;BME280;3230;42.588;23.358;2023-05-23T01:05:10;90916.66;;;9.66;100.00
6395;BME280;3230;42.588;23.358;2023-05-23T01:07:35;90912.22;;;9.66;100.00
6395;BME280;3230;42.588;23.358;2023-05-23T01:10:02;90916.91;;;9.69;100.00
6395;BME280;3230;42.588;23.358;2023-05-23T01:12:36;90910.84;;;9.74;100.00
6395;BME280;3230;42.588;23.358;2023-05-23T01:17:42;90921.06;;;9.75;100.00
6395;BME280;3230;42.588;23.358;2023-05-23T01:20:16;90933.25;;;9.96;100.00
6395;BME280;3230;42.588;23.358;2023-05-23T01:25:53;90929.69;;;9.76;100.00
6395;BME280;3230;42.588;23.358;2023-05-23T01:28:38;90921.59;;;9.72;100.00
6395;BME280;3230;42.588;23.358;2023-05-23T01:31:07;90911.66;;;9.74;100.00
6395;BME280;3230;42.588;23.358;2023-05-23T01:33:35;90918.19;;;9.77;100.00
6395;BME280;3230;42.588;23.358;2023-05-23T01:36:02;90912.22;;;9.66;100.00
6395;BME280;3230;42.588;23.358;2023-05-23T01:38:28;90911.22;;;9.57;100.00
6395;BME280;3230;42.588;23.358;2023-05-23T01:40:53;90914.78;;;9.71;100.00
6395;BME280;3230;42.588;23.358;2023-05-23T01:43:20;90907.94;;;9.81;100.00
6395;BME280;3230;42.588;23.358;2023-05-23T01:45:46;90910.59;;;9.75;100.00
6395;BME280;3230;42.588;23.358;2023-05-23T01:48:13;90909.53;;;9.82;100.00
6395;BME280;3230;42.588;23.358;2023-05-23T01:50:41;90911.84;;;9.83;100.00
6395;BME280;3230;42.588;23.358;2023-05-23T01:53:09;90912.13;;;9.82;100.00
6395;BME280;3230;42.588;23.358;2023-05-23T01:55:36;90908.69;;;9.86;100.00
6395;BME280;3230;42.588;23.358;2023-05-23T01:58:03;90902.16;;;9.89;100.00
6395;BME280;3230;42.588;23.358;2023-05-23T02:00:29;90894.91;;;9.75;100.00
6395;BME280;3230;42.588;23.358;2023-05-23T02:02:54;90908.78;;;9.71;100.00
6395;BME280;3230;42.588;23.358;2023-05-23T02:05:20;90914.31;;;9.64;100.00
6395;BME280;3230;42.588;23.358;2023-05-23T02:07:45;90913.56;;;9.53;100.00
6395;BME280;3230;42.588;23.358;2023-05-23T02:10:11;90912.56;;;9.49;100.00
6395;BME280;3230;42.588;23.358;2023-05-23T02:12:36;90914.91;;;9.51;100.00
6395;BME280;3230;42.588;23.358;2023-05-23T02:15:02;90915.22;;;9.44;100.00
6395;BME280;3230;42.588;23.358;2023-05-23T02:17:27;90913.09;;;9.46;100.00
6395;BME280;3230;42.588;23.358;2023-05-23T02:19:53;90911.56;;;9.40;100.00
6395;BME280;3230;42.588;23.358;2023-05-23T02:22:24;90913.66;;;9.33;100.00
6395;BME280;3230;42.588;23.358;2023-05-23T02:24:50;90910.81;;;9.34;100.00
6395;BME280;3230;42.588;23.358;2023-05-23T02:27:17;90906.91;;;9.32;100.00
6395;BME280;3230;42.588;23.358;2023-05-23T02:29:42;90904.03;;;9.23;100.00
6395;BME280;3230;42.588;23.358;2023-05-23T02:32:08;90908.25;;;9.19;100.00
6395;BME280;3230;42.588;23.358;2023-05-23T02:34:33;90906.97;;;9.11;100.00
6395;BME280;3230;42.588;23.358;2023-05-23T02:36:59;90903.78;;;9.19;100.00
6395;BME280;3230;42.588;23.358;2023-05-23T02:39:26;90903.28;;;9.17;100.00
6395;BME280;3230;42.588;23.358;2023-05-23T02:41:51;90904.09;;;9.12;100.00
6395;BME280;3230;42.588;23.358;2023-05-23T02:44:17;90899.13;;;9.11;100.00
6395;BME280;3230;42.588;23.358;2023-05-23T02:46:46;90900.19;;;9.05;100.00
6395;BME280;3230;42.588;23.358;2023-05-23T02:49:12;90898.13;;;9.02;100.00
6395;BME280;3230;42.588;23.358;2023-05-23T02:51:37;90897.56;;;9.10;100.00
6395;BME280;3230;42.588;23.358;2023-05-23T02:54:03;90896.78;;;9.09;100.00
6395;BME280;3230;42.588;23.358;2023-05-23T02:56:28;90895.47;;;9.07;100.00
6395;BME280;3230;42.588;23.358;2023-05-23T02:58:53;90891.03;;;9.02;100.00
6395;BME280;3230;42.588;23.358;2023-05-23T03:01:19;90890.25;;;9.07;100.00
6395;BME280;3230;42.588;23.358;2023-05-23T03:03:45;90890.53;;;9.05;100.00
6395;BME280;3230;42.588;23.358;2023-05-23T03:06:10;90889.75;;;9.00;100.00
6395;BME280;3230;42.588;23.358;2023-05-23T03:08:39;90894.16;;;9.09;100.00
6395;BME280;3230;42.588;23.358;2023-05-23T03:11:04;90883.69;;;9.20;100.00
6395;BME280;3230;42.588;23.358;2023-05-23T03:13:30;90887.59;;;9.22;100.00
6395;BME280;3230;42.588;23.358;2023-05-23T03:15:55;90880.78;;;9.21;100.00
6395;BME280;3230;42.588;23.358;2023-05-23T03:18:20;90885.19;;;9.31;100.00
6395;BME280;3230;42.588;23.358;2023-05-23T03:20:46;90889.88;;;9.39;100.00
6395;BME280;3230;42.588;23.358;2023-05-23T03:23:11;90886.94;;;9.46;100.00
6395;BME280;3230;42.588;23.358;2023-05-23T03:25:37;90885.81;;;9.63;100.00
6395;BME280;3230;42.588;23.358;2023-05-23T03:28:02;90897.28;;;9.72;100.00
6395;BME280;3230;42.588;23.358;2023-05-23T03:30:28;90890.94;;;9.83;100.00
6395;BME280;3230;42.588;23.358;2023-05-23T03:32:53;90902.34;;;9.98;100.00
6395;BME280;3230;42.588;23.358;2023-05-23T03:35:19;90891.72;;;10.18;100.00
6395;BME280;3230;42.588;23.358;2023-05-23T03:37:45;90897.63;;;10.34;100.00
6395;BME280;3230;42.588;23.358;2023-05-23T03:40:10;90899.69;;;10.72;100.00
6395;BME280;3230;42.588;23.358;2023-05-23T03:42:37;90902.56;;;11.43;100.00
6395;BME280;3230;42.588;23.358;2023-05-23T03:45:04;90911.09;;;11.54;100.00
6395;BME280;3230;42.588;23.358;2023-05-23T03:47:29;90916.50;;;11.63;100.00
6395;BME280;3230;42.588;23.358;2023-05-23T03:49:55;90914.84;;;11.48;100.00
6395;BME280;3230;42.588;23.358;2023-05-23T03:52:20;90918.75;;;11.50;100.00
6395;BME280;3230;42.588;23.358;2023-05-23T03:54:45;90919.41;;;11.61;100.00
6395;BME280;3230;42.588;23.358;2023-05-23T03:57:11;90920.28;;;11.76;100.00
6395;BME280;3230;42.588;23.358;2023-05-23T03:59:36;90921.22;;;12.04;100.00
6395;BME280;3230;42.588;23.358;2023-05-23T04:02:02;90919.44;;;12.19;100.00
6395;BME280;3230;42.588;23.358;2023-05-23T04:04:28;90920.16;;;12.24;100.00
6395;BME280;3230;42.588;23.358;2023-05-23T04:06:53;90918.81;;;12.27;100.00
6395;BME280;3230;42.588;23.358;2023-05-23T04:09:19;90912.16;;;12.48;100.00
6395;BME280;3230;42.588;23.358;2023-05-23T04:11:44;90917.44;;;12.62;100.00
6395;BME280;3230;42.588;23.358;2023-05-23T04:14:11;90918.13;;;12.87;100.00
6395;BME280;3230;42.588;23.358;2023-05-23T04:16:37;90921.75;;;13.19;100.00
6395;BME280;3230;42.588;23.358;2023-05-23T04:19:06;90919.59;;;13.35;100.00
6395;BME280;3230;42.588;23.358;2023-05-23T04:21:31;90931.72;;;13.64;100.00
6395;BME280;3230;42.588;23.358;2023-05-23T04:23:57;90939.88;;;13.77;100.00
6395;BME280;3230;42.588;23.358;2023-05-23T04:26:22;90939.84;;;14.04;100.00
6395;BME280;3230;42.588;23.358;2023-05-23T04:28:47;90944.72;;;14.93;100.00
6395;BME280;3230;42.588;23.358;2023-05-23T04:31:14;90945.56;;;15.11;98.30
6395;BME280;3230;42.588;23.358;2023-05-23T04:33:39;90950.50;;;15.35;98.14
6395;BME280;3230;42.588;23.358;2023-05-23T04:36:05;90956.44;;;15.10;97.28
6395;BME280;3230;42.588;23.358;2023-05-23T04:38:33;90952.00;;;14.96;98.49
6395;BME280;3230;42.588;23.358;2023-05-23T04:40:59;90954.19;;;16.41;93.25
6395;BME280;3230;42.588;23.358;2023-05-23T04:43:24;90972.44;;;17.90;88.54
6395;BME280;3230;42.588;23.358;2023-05-23T04:45:51;90970.44;;;19.23;80.46
6395;BME280;3230;42.588;23.358;2023-05-23T04:48:18;90963.38;;;20.10;77.84
6395;BME280;3230;42.588;23.358;2023-05-23T04:50:46;90971.78;;;20.25;74.43
6395;BME280;3230;42.588;23.358;2023-05-23T04:53:12;90964.81;;;21.43;65.78
6395;BME280;3230;42.588;23.358;2023-05-23T04:55:37;90963.06;;;21.34;66.36
6395;BME280;3230;42.588;23.358;2023-05-23T04:58:03;90958.41;;;21.31;64.49
6395;BME280;3230;42.588;23.358;2023-05-23T05:00:28;90954.25;;;20.89;69.69
6395;BME280;3230;42.588;23.358;2023-05-23T05:02:54;90955.06;;;19.29;74.91
6395;BME280;3230;42.588;23.358;2023-05-23T05:05:20;90959.03;;;19.81;75.43
6395;BME280;3230;42.588;23.358;2023-05-23T05:07:45;90966.19;;;21.52;65.86
6395;BME280;3230;42.588;23.358;2023-05-23T05:10:11;90970.47;;;21.85;66.60
6395;BME280;3230;42.588;23.358;2023-05-23T05:12:44;90970.53;;;23.94;57.43
6395;BME280;3230;42.588;23.358;2023-05-23T05:15:16;90963.50;;;24.09;51.32
6395;BME280;3230;42.588;23.358;2023-05-23T05:17:43;90962.53;;;24.48;47.47
6395;BME280;3230;42.588;23.358;2023-05-23T05:20:09;90961.59;;;26.41;42.49
6395;BME280;3230;42.588;23.358;2023-05-23T05:22:36;90969.41;;;27.34;41.34
6395;BME280;3230;42.588;23.358;2023-05-23T05:25:07;90972.50;;;26.66;43.08
6395;BME280;3230;42.588;23.358;2023-05-23T05:27:33;90961.97;;;25.94;44.88
6395;BME280;3230;42.588;23.358;2023-05-23T05:29:59;90963.97;;;26.53;42.90
6395;BME280;3230;42.588;23.358;2023-05-23T05:32:29;90957.03;;;26.48;44.03
6395;BME280;3230;42.588;23.358;2023-05-23T05:35:01;90965.75;;;26.94;42.91
6395;BME280;3230;42.588;23.358;2023-05-23T05:37:27;90967.19;;;26.73;44.33
6395;BME280;3230;42.588;23.358;2023-05-23T05:39:53;90971.59;;;27.07;43.10
6395;BME280;3230;42.588;23.358;2023-05-23T05:42:22;90969.44;;;26.12;44.19
6395;BME280;3230;42.588;23.358;2023-05-23T05:44:48;90981.63;;;27.13;42.20
6395;BME280;3230;42.588;23.358;2023-05-23T05:47:14;90967.84;;;26.56;43.63
6395;BME280;3230;42.588;23.358;2023-05-23T05:49:40;90980.41;;;28.24;38.86
6395;BME280;3230;42.588;23.358;2023-05-23T05:52:06;90982.22;;;26.26;42.00
6395;BME280;3230;42.588;23.358;2023-05-23T05:54:32;90981.69;;;26.61;40.90
6395;BME280;3230;42.588;23.358;2023-05-23T05:56:57;90981.97;;;27.08;40.93
6395;BME280;3230;42.588;23.358;2023-05-23T05:59:23;90984.09;;;27.58;40.79
6395;BME280;3230;42.588;23.358;2023-05-23T06:01:48;90983.84;;;28.11;39.24
6395;BME280;3230;42.588;23.358;2023-05-23T06:04:16;90990.59;;;31.18;32.55
6395;BME280;3230;42.588;23.358;2023-05-23T06:06:41;90981.41;;;30.17;34.21
6395;BME280;3230;42.588;23.358;2023-05-23T06:09:06;90987.47;;;31.88;31.17
6395;BME280;3230;42.588;23.358;2023-05-23T06:11:32;90989.03;;;30.78;31.57
6395;BME280;3230;42.588;23.358;2023-05-23T06:13:58;90982.28;;;29.03;33.93
6395;BME280;3230;42.588;23.358;2023-05-23T06:16:23;90980.09;;;29.69;34.92
6395;BME280;3230;42.588;23.358;2023-05-23T06:18:49;90981.38;;;29.50;34.30
6395;BME280;3230;42.588;23.358;2023-05-23T06:21:14;90979.22;;;29.97;32.74
6395;BME280;3230;42.588;23.358;2023-05-23T06:23:40;90981.34;;;31.15;30.88
6395;BME280;3230;42.588;23.358;2023-05-23T06:26:05;90985.41;;;33.22;28.66
6395;BME280;3230;42.588;23.358;2023-05-23T06:28:36;90983.25;;;33.37;29.22
6395;BME280;3230;42.588;23.358;2023-05-23T06:31:01;90991.31;;;32.18;30.38
6395;BME280;3230;42.588;23.358;2023-05-23T06:33:27;90995.81;;;32.32;29.02
6395;BME280;3230;42.588;23.358;2023-05-23T06:35:53;90985.03;;;31.98;31.22
6395;BME280;3230;42.588;23.358;2023-05-23T06:38:18;90995.66;;;32.67;28.55
6395;BME280;3230;42.588;23.358;2023-05-23T06:40:44;90988.81;;;32.04;29.34
6395;BME280;3230;42.588;23.358;2023-05-23T06:43:12;90989.34;;;32.50;31.16
6395;BME280;3230;42.588;23.358;2023-05-23T06:45:37;90991.69;;;34.53;28.83
6395;BME280;3230;42.588;23.358;2023-05-23T06:52:18;90991.25;;;33.85;29.41
6395;BME280;3230;42.588;23.358;2023-05-23T06:54:43;90987.94;;;33.33;28.99
6395;BME280;3230;42.588;23.358;2023-05-23T06:57:08;90992.16;;;34.15;28.13
6395;BME280;3230;42.588;23.358;2023-05-23T06:59:34;90994.00;;;33.61;28.71
6395;BME280;3230;42.588;23.358;2023-05-23T07:01:59;90990.44;;;34.41;28.84
6395;BME280;3230;42.588;23.358;2023-05-23T07:04:25;91002.22;;;34.67;27.79
6395;BME280;3230;42.588;23.358;2023-05-23T07:06:51;90988.09;;;34.23;27.96
6395;BME280;3230;42.588;23.358;2023-05-23T07:09:17;90990.53;;;33.40;28.83
6395;BME280;3230;42.588;23.358;2023-05-23T07:11:42;90993.09;;;33.88;27.25
6395;BME280;3230;42.588;23.358;2023-05-23T07:14:08;90988.81;;;33.30;27.81
6395;BME280;3230;42.588;23.358;2023-05-23T07:16:33;90978.38;;;33.25;28.12
6395;BME280;3230;42.588;23.358;2023-05-23T07:19:00;90980.91;;;34.49;25.25
6395;BME280;3230;42.588;23.358;2023-05-23T07:21:26;90983.03;;;34.05;26.43
6395;BME280;3230;42.588;23.358;2023-05-23T07:23:51;90983.03;;;34.05;25.39
6395;BME280;3230;42.588;23.358;2023-05-23T07:26:16;90983.09;;;34.71;24.90
6395;BME280;3230;42.588;23.358;2023-05-23T07:28:42;91072.91;;;34.71;26.04
6395;BME280;3230;42.588;23.358;2023-05-23T07:31:07;90974.56;;;33.83;26.87
6395;BME280;3230;42.588;23.358;2023-05-23T07:33:34;90978.69;;;35.10;26.21
6395;BME280;3230;42.588;23.358;2023-05-23T07:35:59;90972.84;;;35.25;25.20
6395;BME280;3230;42.588;23.358;2023-05-23T07:38:25;90978.50;;;35.01;26.14
6395;BME280;3230;42.588;23.358;2023-05-23T07:40:51;90978.09;;;34.36;27.17
6395;BME280;3230;42.588;23.358;2023-05-23T07:43:16;90966.88;;;34.67;27.38
6395;BME280;3230;42.588;23.358;2023-05-23T07:45:42;90973.38;;;35.19;25.51
6395;BME280;3230;42.588;23.358;2023-05-23T07:48:08;90977.25;;;35.64;23.84
6395;BME280;3230;42.588;23.358;2023-05-23T07:50:33;90972.31;;;31.95;24.38
6395;BME280;3230;42.588;23.358;2023-05-23T07:52:59;90964.00;;;31.78;27.32
6395;BME280;3230;42.588;23.358;2023-05-23T07:55:24;90966.63;;;31.85;27.12
6395;BME280;3230;42.588;23.358;2023-05-23T07:57:50;90968.38;;;33.62;25.18
6395;BME280;3230;42.588;23.358;2023-05-23T08:00:17;90965.22;;;32.04;27.51
6395;BME280;3230;42.588;23.358;2023-05-23T08:02:42;90974.69;;;34.82;22.93
6395;BME280;3230;42.588;23.358;2023-05-23T08:05:08;90976.28;;;35.84;21.62
6395;BME280;3230;42.588;23.358;2023-05-23T08:07:33;90962.16;;;34.18;23.59
6395;BME280;3230;42.588;23.358;2023-05-23T08:09:59;90968.56;;;35.40;22.03
6395;BME280;3230;42.588;23.358;2023-05-23T08:12:24;90972.56;;;36.20;22.36
6395;BME280;3230;42.588;23.358;2023-05-23T08:14:50;90958.09;;;34.26;23.98
6395;BME280;3230;42.588;23.358;2023-05-23T08:17:15;90963.44;;;34.30;25.70
6395;BME280;3230;42.588;23.358;2023-05-23T08:19:41;91145.19;;;36.14;22.61
6395;BME280;3230;42.588;23.358;2023-05-23T08:22:06;83580.34;;;34.91;23.05
6395;BME280;3230;42.588;23.358;2023-05-23T08:24:31;90921.72;;;34.11;22.70
6395;BME280;3230;42.588;23.358;2023-05-23T08:26:58;90978.16;;;34.99;23.04
6395;BME280;3230;42.588;23.358;2023-05-23T08:29:24;90980.16;;;35.28;21.34
6395;BME280;3230;42.588;23.358;2023-05-23T08:31:49;90968.97;;;33.29;23.90
6395;BME280;3230;42.588;23.358;2023-05-23T08:34:15;90963.84;;;32.16;26.63
6395;BME280;3230;42.588;23.358;2023-05-23T08:36:40;90964.22;;;33.37;23.53
6395;BME280;3230;42.588;23.358;2023-05-23T08:39:07;90959.34;;;33.48;25.21
6395;BME280;3230;42.588;23.358;2023-05-23T08:41:34;90966.47;;;34.52;22.55
6395;BME280;3230;42.588;23.358;2023-05-23T08:43:59;90965.53;;;33.69;23.82
6395;BME280;3230;42.588;23.358;2023-05-23T08:46:25;90972.31;;;34.67;22.01
6395;BME280;3230;42.588;23.358;2023-05-23T08:48:52;90967.81;;;33.91;22.92
6395;BME280;3230;42.588;23.358;2023-05-23T08:51:26;90965.44;;;33.93;24.26
6395;BME280;3230;42.588;23.358;2023-05-23T08:53:52;90957.31;;;31.86;27.45
6395;BME280;3230;42.588;23.358;2023-05-23T08:56:18;90965.41;;;32.92;24.41
6395;BME280;3230;42.588;23.358;2023-05-23T08:58:45;90963.97;;;33.28;23.48
6395;BME280;3230;42.588;23.358;2023-05-23T09:01:13;90964.75;;;32.61;24.59
6395;BME280;3230;42.588;23.358;2023-05-23T09:03:39;90959.69;;;30.77;26.77
6395;BME280;3230;42.588;23.358;2023-05-23T09:06:07;90956.47;;;30.47;28.16
6395;BME280;3230;42.588;23.358;2023-05-23T09:08:32;90960.72;;;27.81;32.70
6395;BME280;3230;42.588;23.358;2023-05-23T09:10:57;90961.09;;;26.28;30.85
6395;BME280;3230;42.588;23.358;2023-05-23T09:13:23;90950.31;;;25.07;35.25
6395;BME280;3230;42.588;23.358;2023-05-23T09:18:25;90944.97;;;24.23;37.74
6395;BME280;3230;42.588;23.358;2023-05-23T09:20:51;90954.28;;;23.40;38.99
6395;BME280;3230;42.588;23.358;2023-05-23T09:23:16;90950.88;;;23.20;38.85
6395;BME280;3230;42.588;23.358;2023-05-23T09:25:46;90948.03;;;23.13;40.04
6395;BME280;3230;42.588;23.358;2023-05-23T09:28:12;90948.38;;;22.72;37.94
6395;BME280;3230;42.588;23.358;2023-05-23T09:30:38;90945.69;;;22.36;39.84
6395;BME280;3230;42.588;23.358;2023-05-23T09:33:04;90949.94;;;22.22;40.48
6395;BME280;3230;42.588;23.358;2023-05-23T09:35:30;90943.75;;;22.17;42.20
6395;BME280;3230;42.588;23.358;2023-05-23T09:37:56;90946.97;;;22.07;41.41
6395;BME280;3230;42.588;23.358;2023-05-23T09:40:28;90952.91;;;21.68;44.57
6395;BME280;3230;42.588;23.358;2023-05-23T09:42:54;90941.72;;;21.79;44.02
6395;BME280;3230;42.588;23.358;2023-05-23T09:45:19;90942.66;;;21.86;42.24
6395;BME280;3230;42.588;23.358;2023-05-23T09:47:49;90934.00;;;21.29;40.14
6395;BME280;3230;42.588;23.358;2023-05-23T09:50:15;90928.69;;;21.29;43.41
6395;BME280;3230;42.588;23.358;2023-05-23T09:52:41;90938.72;;;21.64;45.62
6395;BME280;3230;42.588;23.358;2023-05-23T09:55:06;90940.13;;;21.46;43.88
6395;BME280;3230;42.588;23.358;2023-05-23T09:57:39;90932.63;;;21.35;42.98
6395;BME280;3230;42.588;23.358;2023-05-23T10:00:05;90924.34;;;21.08;41.21
6395;BME280;3230;42.588;23.358;2023-05-23T10:08:11;90927.44;;;21.11;42.01
6395;BME280;3230;42.588;23.358;2023-05-23T10:13:24;90938.00;;;20.79;43.04
6395;BME280;3230;42.588;23.358;2023-05-23T10:15:54;90933.56;;;20.83;43.91
6395;BME280;3230;42.588;23.358;2023-05-23T10:18:26;90933.59;;;20.99;42.86
6395;BME280;3230;42.588;23.358;2023-05-23T10:20:56;90918.56;;;21.06;41.16
6395;BME280;3230;42.588;23.358;2023-05-23T10:23:26;90926.56;;;20.78;41.48
6395;BME280;3230;42.588;23.358;2023-05-23T10:25:52;90921.81;;;20.59;43.58
6395;BME280;3230;42.588;23.358;2023-05-23T10:28:19;90925.75;;;20.49;43.67
6395;BME280;3230;42.588;23.358;2023-05-23T10:30:45;90916.13;;;20.32;44.79
6395;BME280;3230;42.588;23.358;2023-05-23T10:33:11;90912.94;;;20.67;45.47
6395;BME280;3230;42.588;23.358;2023-05-23T10:41:47;90909.34;;;20.88;38.50
6395;BME280;3230;42.588;23.358;2023-05-23T10:44:22;90911.75;;;20.93;37.81
6395;BME280;3230;42.588;23.358;2023-05-23T10:46:56;90910.19;;;21.20;39.35
6395;BME280;3230;42.588;23.358;2023-05-23T10:49:42;90917.09;;;21.37;40.35
6395;BME280;3230;42.588;23.358;2023-05-23T10:52:10;90911.50;;;21.27;40.36
6395;BME280;3230;42.588;23.358;2023-05-23T10:57:09;90902.84;;;21.01;40.20
6395;BME280;3230;42.588;23.358;2023-05-23T10:59:36;90897.97;;;21.03;40.89
6395;BME280;3230;42.588;23.358;2023-05-23T11:02:02;90903.38;;;21.07;41.84
6395;BME280;3230;42.588;23.358;2023-05-23T11:04:31;90903.91;;;20.84;40.29
6395;BME280;3230;42.588;23.358;2023-05-23T11:06:57;90897.16;;;21.03;44.36
6395;BME280;3230;42.588;23.358;2023-05-23T11:09:23;90896.69;;;21.13;39.93
6395;BME280;3230;42.588;23.358;2023-05-23T11:12:04;90900.94;;;21.46;42.99
6395;BME280;3230;42.588;23.358;2023-05-23T11:14:31;90896.63;;;21.41;40.63
6395;BME280;3230;42.588;23.358;2023-05-23T11:19:37;90896.81;;;21.81;40.29
6395;BME280;3230;42.588;23.358;2023-05-23T11:22:04;90888.88;;;22.00;37.95
6395;BME280;3230;42.588;23.358;2023-05-23T11:24:52;90886.47;;;21.47;37.89
6395;BME280;3230;42.588;23.358;2023-05-23T11:27:31;90891.66;;;21.72;39.54
6395;BME280;3230;42.588;23.358;2023-05-23T11:30:05;90889.25;;;21.67;39.63
6395;BME280;3230;42.588;23.358;2023-05-23T11:32:31;90891.56;;;21.52;38.73
6395;BME280;3230;42.588;23.358;2023-05-23T11:35:04;90887.63;;;21.62;39.64
6395;BME280;3230;42.588;23.358;2023-05-23T11:37:31;90889.84;;;21.60;37.76
6395;BME280;3230;42.588;23.358;2023-05-23T11:39:58;90884.59;;;21.48;38.02
6395;BME280;3230;42.588;23.358;2023-05-23T11:42:24;90879.34;;;21.35;40.81
6395;BME280;3230;42.588;23.358;2023-05-23T11:44:50;90884.56;;;21.32;41.19
6395;BME280;3230;42.588;23.358;2023-05-23T11:47:16;90883.63;;;21.24;41.82
6395;BME280;3230;42.588;23.358;2023-05-23T11:49:44;90879.59;;;21.14;39.84
6395;BME280;3230;42.588;23.358;2023-05-23T11:52:10;90878.13;;;21.17;40.21
6395;BME280;3230;42.588;23.358;2023-05-23T11:54:36;90875.66;;;21.24;41.99
6395;BME280;3230;42.588;23.358;2023-05-23T11:57:02;90872.47;;;21.34;38.87
6395;BME280;3230;42.588;23.358;2023-05-23T11:59:28;90881.78;;;21.56;41.20
6395;BME280;3230;42.588;23.358;2023-05-23T12:01:54;90882.47;;;21.69;40.06
6395;BME280;3230;42.588;23.358;2023-05-23T12:04:20;90879.19;;;21.60;40.00
6395;BME280;3230;42.588;23.358;2023-05-23T12:06:47;90871.53;;;21.59;38.07
6395;BME280;3230;42.588;23.358;2023-05-23T12:09:13;90860.53;;;21.60;38.56
6395;BME280;3230;42.588;23.358;2023-05-23T12:11:40;90864.63;;;21.41;39.53
6395;BME280;3230;42.588;23.358;2023-05-23T12:14:06;90858.28;;;21.62;41.86
6395;BME280;3230;42.588;23.358;2023-05-23T12:16:33;90858.63;;;21.77;41.88
6395;BME280;3230;42.588;23.358;2023-05-23T12:19:00;90861.41;;;21.64;38.38
6395;BME280;3230;42.588;23.358;2023-05-23T12:21:39;90855.63;;;21.62;39.52
6395;BME280;3230;42.588;23.358;2023-05-23T12:26:52;90852.34;;;21.85;38.53
6395;BME280;3230;42.588;23.358;2023-05-23T12:29:19;90852.34;;;21.85;39.48
6395;BME280;3230;42.588;23.358;2023-05-23T12:31:50;90850.28;;;21.78;38.66
6395;BME280;3230;42.588;23.358;2023-05-23T12:34:16;90850.97;;;21.59;38.88
6395;BME280;3230;42.588;23.358;2023-05-23T12:36:41;90843.22;;;21.54;40.03
6395;BME280;3230;42.588;23.358;2023-05-23T12:39:08;90843.66;;;21.56;39.41
6395;BME280;3230;42.588;23.358;2023-05-23T12:41:34;90848.75;;;21.61;39.40
6395;BME280;3230;42.588;23.358;2023-05-23T12:44:01;90830.16;;;21.65;40.16
6395;BME280;3230;42.588;23.358;2023-05-23T12:46:27;90835.22;;;21.70;40.00
6395;BME280;3230;42.588;23.358;2023-05-23T12:48:53;90826.19;;;21.75;38.99
6395;BME280;3230;42.588;23.358;2023-05-23T12:51:19;90821.69;;;21.79;38.28
6395;BME280;3230;42.588;23.358;2023-05-23T12:53:46;90823.81;;;21.69;38.25
6395;BME280;3230;42.588;23.358;2023-05-23T12:56:11;90827.88;;;21.99;38.61
6395;BME280;3230;42.588;23.358;2023-05-23T12:58:37;90818.38;;;22.01;39.31
6395;BME280;3230;42.588;23.358;2023-05-23T13:01:03;90812.31;;;22.20;39.98
6395;BME280;3230;42.588;23.358;2023-05-23T13:03:29;90817.41;;;22.10;38.78
6395;BME280;3230;42.588;23.358;2023-05-23T13:05:58;90817.75;;;21.88;41.98
6395;BME280;3230;42.588;23.358;2023-05-23T13:08:25;90820.25;;;21.49;40.55
6395;BME280;3230;42.588;23.358;2023-05-23T13:10:52;90812.28;;;21.33;39.65
6395;BME280;3230;42.588;23.358;2023-05-23T13:13:18;90815.56;;;21.27;40.95
6395;BME280;3230;42.588;23.358;2023-05-23T13:15:44;90812.97;;;21.62;38.61
6395;BME280;3230;42.588;23.358;2023-05-23T13:18:09;90805.84;;;21.34;38.86
6395;BME280;3230;42.588;23.358;2023-05-23T13:20:35;90813.38;;;21.48;38.77
6395;BME280;3230;42.588;23.358;2023-05-23T13:23:02;90814.00;;;21.41;38.47
6395;BME280;3230;42.588;23.358;2023-05-23T13:25:27;90806.59;;;21.19;38.23
6395;BME280;3230;42.588;23.358;2023-05-23T13:27:53;90817.88;;;21.28;39.31
6395;BME280;3230;42.588;23.358;2023-05-23T13:30:19;90810.72;;;21.32;39.03
6395;BME280;3230;42.588;23.358;2023-05-23T13:32:45;90813.13;;;21.69;37.73
6395;BME280;3230;42.588;23.358;2023-05-23T13:35:10;90810.50;;;21.89;36.09
6395;BME280;3230;42.588;23.358;2023-05-23T13:37:36;90805.78;;;21.82;35.63
6395;BME280;3230;42.588;23.358;2023-05-23T13:40:03;90805.81;;;21.66;35.79
6395;BME280;3230;42.588;23.358;2023-05-23T13:42:29;90809.59;;;21.65;35.14